sensor_id;sensor_type;location;lat;lon;timestamp;P1;durP1;ratioP1;P2;durP2;ratioP2
63203;SDS011;49297;43.210;27.914;2023-04-24T00:00:57;8.38;;;6.72;;
63203;SDS011;49297;43.210;27.914;2023-04-24T00:03:24;14.30;;;9.45;;
63203;SDS011;49297;43.210;27.914;2023-04-24T00:05:50;17.38;;;8.77;;
63203;SDS011;49297;43.210;27.914;2023-04-24T00:08:17;12.73;;;7.38;;
63203;SDS011;49297;43.210;27.914;2023-04-24T00:10:43;13.98;;;7.50;;
63203;SDS011;49297;43.210;27.914;2023-04-24T00:13:10;8.27;;;7.38;;
63203;SDS011;49297;43.210;27.914;2023-04-24T00:15:36;9.90;;;7.25;;
63203;SDS011;49297;43.210;27.914;2023-04-24T00:18:03;10.43;;;7.53;;
63203;SDS011;49297;43.210;27.914;2023-04-24T00:20:29;11.40;;;7.30;;
63203;SDS011;49297;43.210;27.914;2023-04-24T00:22:58;7.82;;;6.68;;
63203;SDS011;49297;43.210;27.914;2023-04-24T00:25:24;13.38;;;6.95;;
63203;SDS011;49297;43.210;27.914;2023-04-24T00:27:51;9.88;;;6.32;;
63203;SDS011;49297;43.210;27.914;2023-04-24T00:30:16;9.10;;;6.73;;
63203;SDS011;49297;43.210;27.914;2023-04-24T00:32:42;8.68;;;6.70;;
63203;SDS011;49297;43.210;27.914;2023-04-24T00:35:08;13.55;;;7.25;;
63203;SDS011;49297;43.210;27.914;2023-04-24T00:37:34;10.90;;;6.72;;
63203;SDS011;49297;43.210;27.914;2023-04-24T00:40:02;11.48;;;6.38;;
63203;SDS011;49297;43.210;27.914;2023-04-24T00:42:28;12.65;;;8.75;;
63203;SDS011;49297;43.210;27.914;2023-04-24T00:44:54;14.40;;;10.50;;
63203;SDS011;49297;43.210;27.914;2023-04-24T00:47:21;13.80;;;10.23;;
63203;SDS011;49297;43.210;27.914;2023-04-24T00:49:48;12.23;;;10.97;;
63203;SDS011;49297;43.210;27.914;2023-04-24T00:52:14;13.40;;;11.88;;
63203;SDS011;49297;43.210;27.914;2023-04-24T00:54:46;18.75;;;14.20;;
63203;SDS011;49297;43.210;27.914;2023-04-24T00:57:14;18.05;;;16.27;;
63203;SDS011;49297;43.210;27.914;2023-04-24T00:59:42;20.53;;;18.27;;
63203;SDS011;49297;43.210;27.914;2023-04-24T01:02:09;20.23;;;18.33;;
63203;SDS011;49297;43.210;27.914;2023-04-24T01:04:36;26.40;;;20.23;;
63203;SDS011;49297;43.210;27.914;2023-04-24T01:07:03;22.90;;;20.80;;
63203;SDS011;49297;43.210;27.914;2023-04-24T01:09:39;24.40;;;21.92;;
63203;SDS011;49297;43.210;27.914;2023-04-24T01:12:09;25.75;;;22.08;;
63203;SDS011;49297;43.210;27.914;2023-04-24T01:14:35;22.70;;;20.38;;
63203;SDS011;49297;43.210;27.914;2023-04-24T01:17:01;22.15;;;19.75;;
63203;SDS011;49297;43.210;27.914;2023-04-24T01:19:28;21.25;;;19.08;;
63203;SDS011;49297;43.210;27.914;2023-04-24T01:21:56;24.42;;;20.17;;
63203;SDS011;49297;43.210;27.914;2023-04-24T01:24:30;20.83;;;18.83;;
63203;SDS011;49297;43.210;27.914;2023-04-24T01:26:56;25.00;;;16.83;;
63203;SDS011;49297;43.210;27.914;2023-04-24T01:29:22;18.45;;;16.42;;
63203;SDS011;49297;43.210;27.914;2023-04-24T01:31:48;21.27;;;17.07;;
63203;SDS011;49297;43.210;27.914;2023-04-24T01:34:14;24.03;;;17.57;;
63203;SDS011;49297;43.210;27.914;2023-04-24T01:36:41;20.38;;;18.27;;
63203;SDS011;49297;43.210;27.914;2023-04-24T01:39:09;22.20;;;15.57;;
63203;SDS011;49297;43.210;27.914;2023-04-24T01:41:35;24.40;;;17.90;;
63203;SDS011;49297;43.210;27.914;2023-04-24T01:44:02;18.55;;;16.08;;
63203;SDS011;49297;43.210;27.914;2023-04-24T01:46:31;19.02;;;15.82;;
63203;SDS011;49297;43.210;27.914;2023-04-24T01:49:00;21.07;;;16.07;;
63203;SDS011;49297;43.210;27.914;2023-04-24T01:51:26;20.60;;;15.47;;
63203;SDS011;49297;43.210;27.914;2023-04-24T01:53:53;17.88;;;16.02;;
63203;SDS011;49297;43.210;27.914;2023-04-24T01:56:20;18.83;;;15.40;;
63203;SDS011;49297;43.210;27.914;2023-04-24T01:58:48;21.13;;;16.15;;
63203;SDS011;49297;43.210;27.914;2023-04-24T02:01:19;20.03;;;14.70;;
63203;SDS011;49297;43.210;27.914;2023-04-24T02:03:46;17.70;;;14.05;;
63203;SDS011;49297;43.210;27.914;2023-04-24T02:06:12;19.48;;;14.75;;
63203;SDS011;49297;43.210;27.914;2023-04-24T02:08:37;18.73;;;15.45;;
63203;SDS011;49297;43.210;27.914;2023-04-24T02:11:03;18.80;;;15.65;;
63203;SDS011;49297;43.210;27.914;2023-04-24T02:13:30;28.13;;;16.73;;
63203;SDS011;49297;43.210;27.914;2023-04-24T02:15:55;23.88;;;16.75;;
63203;SDS011;49297;43.210;27.914;2023-04-24T02:18:21;21.90;;;17.10;;
63203;SDS011;49297;43.210;27.914;2023-04-24T02:20:47;19.33;;;15.85;;
63203;SDS011;49297;43.210;27.914;2023-04-24T02:23:13;24.50;;;16.43;;
63203;SDS011;49297;43.210;27.914;2023-04-24T02:25:39;22.27;;;15.30;;
63203;SDS011;49297;43.210;27.914;2023-04-24T02:28:05;15.02;;;13.43;;
63203;SDS011;49297;43.210;27.914;2023-04-24T02:30:31;18.38;;;12.40;;
63203;SDS011;49297;43.210;27.914;2023-04-24T02:32:57;19.70;;;11.43;;
63203;SDS011;49297;43.210;27.914;2023-04-24T02:35:23;14.43;;;9.68;;
63203;SDS011;49297;43.210;27.914;2023-04-24T02:37:48;13.10;;;9.57;;
63203;SDS011;49297;43.210;27.914;2023-04-24T02:40:15;13.50;;;8.37;;
63203;SDS011;49297;43.210;27.914;2023-04-24T02:42:41;10.77;;;8.60;;
63203;SDS011;49297;43.210;27.914;2023-04-24T02:45:07;12.57;;;8.10;;
63203;SDS011;49297;43.210;27.914;2023-04-24T02:47:34;10.90;;;7.95;;
63203;SDS011;49297;43.210;27.914;2023-04-24T02:50:01;11.15;;;9.00;;
63203;SDS011;49297;43.210;27.914;2023-04-24T02:52:30;11.18;;;8.15;;
63203;SDS011;49297;43.210;27.914;2023-04-24T02:54:56;16.47;;;9.43;;
63203;SDS011;49297;43.210;27.914;2023-04-24T02:57:23;10.47;;;9.17;;
63203;SDS011;49297;43.210;27.914;2023-04-24T02:59:49;12.55;;;8.13;;
63203;SDS011;49297;43.210;27.914;2023-04-24T03:02:16;11.98;;;8.38;;
63203;SDS011;49297;43.210;27.914;2023-04-24T03:04:42;13.65;;;8.05;;
63203;SDS011;49297;43.210;27.914;2023-04-24T03:07:08;20.15;;;8.77;;
63203;SDS011;49297;43.210;27.914;2023-04-24T03:09:34;8.97;;;8.07;;
63203;SDS011;49297;43.210;27.914;2023-04-24T03:12:00;11.55;;;8.02;;
63203;SDS011;49297;43.210;27.914;2023-04-24T03:14:26;15.85;;;7.60;;
63203;SDS011;49297;43.210;27.914;2023-04-24T03:16:51;11.05;;;8.20;;
63203;SDS011;49297;43.210;27.914;2023-04-24T03:19:18;11.45;;;8.40;;
63203;SDS011;49297;43.210;27.914;2023-04-24T03:21:44;14.25;;;7.32;;
63203;SDS011;49297;43.210;27.914;2023-04-24T03:24:10;10.60;;;8.20;;
63203;SDS011;49297;43.210;27.914;2023-04-24T03:26:36;12.27;;;7.88;;
63203;SDS011;49297;43.210;27.914;2023-04-24T03:29:02;14.98;;;8.82;;
63203;SDS011;49297;43.210;27.914;2023-04-24T03:31:29;9.07;;;7.72;;
63203;SDS011;49297;43.210;27.914;2023-04-24T03:33:55;12.35;;;7.57;;
63203;SDS011;49297;43.210;27.914;2023-04-24T03:36:21;13.27;;;7.67;;
63203;SDS011;49297;43.210;27.914;2023-04-24T03:38:47;11.13;;;6.97;;
63203;SDS011;49297;43.210;27.914;2023-04-24T03:41:13;14.00;;;7.93;;
63203;SDS011;49297;43.210;27.914;2023-04-24T03:43:39;17.30;;;7.93;;
63203;SDS011;49297;43.210;27.914;2023-04-24T03:46:07;10.43;;;8.30;;
63203;SDS011;49297;43.210;27.914;2023-04-24T03:48:35;10.88;;;7.72;;
63203;SDS011;49297;43.210;27.914;2023-04-24T03:51:00;14.53;;;7.93;;
63203;SDS011;49297;43.210;27.914;2023-04-24T03:53:26;9.27;;;7.00;;
63203;SDS011;49297;43.210;27.914;2023-04-24T03:55:52;14.90;;;7.87;;
63203;SDS011;49297;43.210;27.914;2023-04-24T03:58:19;12.40;;;8.77;;
63203;SDS011;49297;43.210;27.914;2023-04-24T04:00:51;13.65;;;8.98;;
63203;SDS011;49297;43.210;27.914;2023-04-24T04:03:18;13.32;;;8.30;;
63203;SDS011;49297;43.210;27.914;2023-04-24T04:05:45;14.35;;;8.52;;
63203;SDS011;49297;43.210;27.914;2023-04-24T04:08:17;12.45;;;6.95;;
63203;SDS011;49297;43.210;27.914;2023-04-24T04:10:42;15.15;;;7.78;;
63203;SDS011;49297;43.210;27.914;2023-04-24T04:13:09;15.27;;;8.10;;
63203;SDS011;49297;43.210;27.914;2023-04-24T04:15:35;47.42;;;34.25;;
63203;SDS011;49297;43.210;27.914;2023-04-24T04:20:30;28.05;;;22.70;;
63203;SDS011;49297;43.210;27.914;2023-04-24T04:22:57;32.37;;;22.57;;
63203;SDS011;49297;43.210;27.914;2023-04-24T04:25:24;19.88;;;16.52;;
63203;SDS011;49297;43.210;27.914;2023-04-24T04:27:51;17.80;;;13.65;;
63203;SDS011;49297;43.210;27.914;2023-04-24T04:30:18;19.55;;;9.35;;
63203;SDS011;49297;43.210;27.914;2023-04-24T04:32:43;11.75;;;8.20;;
63203;SDS011;49297;43.210;27.914;2023-04-24T04:35:09;17.50;;;10.00;;
63203;SDS011;49297;43.210;27.914;2023-04-24T04:37:36;15.67;;;9.00;;
63203;SDS011;49297;43.210;27.914;2023-04-24T04:40:03;12.82;;;7.35;;
63203;SDS011;49297;43.210;27.914;2023-04-24T04:42:32;10.93;;;6.63;;
63203;SDS011;49297;43.210;27.914;2023-04-24T04:45:01;10.30;;;6.20;;
63203;SDS011;49297;43.210;27.914;2023-04-24T04:47:28;12.85;;;6.55;;
63203;SDS011;49297;43.210;27.914;2023-04-24T04:49:57;12.70;;;6.33;;
63203;SDS011;49297;43.210;27.914;2023-04-24T04:52:24;7.53;;;5.87;;
63203;SDS011;49297;43.210;27.914;2023-04-24T04:54:51;9.90;;;6.37;;
63203;SDS011;49297;43.210;27.914;2023-04-24T04:57:19;9.65;;;6.40;;
63203;SDS011;49297;43.210;27.914;2023-04-24T04:59:46;14.65;;;6.28;;
63203;SDS011;49297;43.210;27.914;2023-04-24T05:02:11;10.90;;;6.00;;
63203;SDS011;49297;43.210;27.914;2023-04-24T05:04:37;7.50;;;5.60;;
63203;SDS011;49297;43.210;27.914;2023-04-24T05:07:03;6.05;;;5.30;;
63203;SDS011;49297;43.210;27.914;2023-04-24T05:09:29;7.50;;;5.77;;
63203;SDS011;49297;43.210;27.914;2023-04-24T05:11:55;7.90;;;5.90;;
63203;SDS011;49297;43.210;27.914;2023-04-24T05:14:21;7.33;;;5.77;;
63203;SDS011;49297;43.210;27.914;2023-04-24T05:16:51;14.40;;;6.27;;
63203;SDS011;49297;43.210;27.914;2023-04-24T05:19:16;13.55;;;6.07;;
63203;SDS011;49297;43.210;27.914;2023-04-24T05:21:43;8.13;;;5.93;;
63203;SDS011;49297;43.210;27.914;2023-04-24T05:24:10;9.65;;;6.55;;
63203;SDS011;49297;43.210;27.914;2023-04-24T05:26:37;9.10;;;6.28;;
63203;SDS011;49297;43.210;27.914;2023-04-24T05:29:09;9.07;;;6.18;;
63203;SDS011;49297;43.210;27.914;2023-04-24T05:31:35;7.68;;;4.93;;
63203;SDS011;49297;43.210;27.914;2023-04-24T05:34:03;14.10;;;6.05;;
63203;SDS011;49297;43.210;27.914;2023-04-24T05:36:30;8.05;;;4.80;;
63203;SDS011;49297;43.210;27.914;2023-04-24T05:38:56;7.10;;;5.17;;
63203;SDS011;49297;43.210;27.914;2023-04-24T05:41:22;10.20;;;5.30;;
63203;SDS011;49297;43.210;27.914;2023-04-24T05:43:49;8.35;;;4.45;;
63203;SDS011;49297;43.210;27.914;2023-04-24T05:46:15;7.63;;;4.88;;
63203;SDS011;49297;43.210;27.914;2023-04-24T05:48:41;6.38;;;4.85;;
63203;SDS011;49297;43.210;27.914;2023-04-24T05:51:08;10.37;;;5.80;;
63203;SDS011;49297;43.210;27.914;2023-04-24T05:53:35;8.52;;;5.18;;
63203;SDS011;49297;43.210;27.914;2023-04-24T05:56:01;9.52;;;5.80;;
63203;SDS011;49297;43.210;27.914;2023-04-24T05:58:29;9.00;;;5.70;;
63203;SDS011;49297;43.210;27.914;2023-04-24T06:00:57;6.10;;;4.82;;
63203;SDS011;49297;43.210;27.914;2023-04-24T06:03:25;7.78;;;4.57;;
63203;SDS011;49297;43.210;27.914;2023-04-24T06:05:51;9.05;;;5.07;;
63203;SDS011;49297;43.210;27.914;2023-04-24T06:08:17;8.88;;;5.30;;
63203;SDS011;49297;43.210;27.914;2023-04-24T06:10:43;9.65;;;5.05;;
63203;SDS011;49297;43.210;27.914;2023-04-24T06:13:08;10.43;;;4.97;;
63203;SDS011;49297;43.210;27.914;2023-04-24T06:15:36;10.02;;;5.40;;
63203;SDS011;49297;43.210;27.914;2023-04-24T06:18:02;11.38;;;5.00;;
63203;SDS011;49297;43.210;27.914;2023-04-24T06:20:29;6.28;;;4.22;;
63203;SDS011;49297;43.210;27.914;2023-04-24T06:22:55;9.20;;;5.30;;
63203;SDS011;49297;43.210;27.914;2023-04-24T06:25:24;8.90;;;5.03;;
63203;SDS011;49297;43.210;27.914;2023-04-24T06:27:52;11.15;;;6.63;;
63203;SDS011;49297;43.210;27.914;2023-04-24T06:30:21;11.80;;;5.75;;
63203;SDS011;49297;43.210;27.914;2023-04-24T06:32:47;7.97;;;5.27;;
63203;SDS011;49297;43.210;27.914;2023-04-24T06:35:13;9.73;;;4.88;;
63203;SDS011;49297;43.210;27.914;2023-04-24T06:37:39;9.30;;;4.70;;
63203;SDS011;49297;43.210;27.914;2023-04-24T06:40:07;6.03;;;4.68;;
63203;SDS011;49297;43.210;27.914;2023-04-24T06:42:35;7.33;;;4.53;;
63203;SDS011;49297;43.210;27.914;2023-04-24T06:45:02;11.20;;;8.55;;
63203;SDS011;49297;43.210;27.914;2023-04-24T06:47:30;9.90;;;5.27;;
63203;SDS011;49297;43.210;27.914;2023-04-24T06:49:55;7.70;;;4.38;;
63203;SDS011;49297;43.210;27.914;2023-04-24T06:52:21;6.55;;;4.50;;
63203;SDS011;49297;43.210;27.914;2023-04-24T06:54:47;6.75;;;4.93;;
63203;SDS011;49297;43.210;27.914;2023-04-24T06:57:15;11.05;;;4.85;;
63203;SDS011;49297;43.210;27.914;2023-04-24T06:59:44;8.48;;;4.65;;
63203;SDS011;49297;43.210;27.914;2023-04-24T07:02:10;6.47;;;4.85;;
63203;SDS011;49297;43.210;27.914;2023-04-24T07:04:36;8.05;;;5.07;;
63203;SDS011;49297;43.210;27.914;2023-04-24T07:07:03;5.95;;;5.03;;
63203;SDS011;49297;43.210;27.914;2023-04-24T07:09:31;6.07;;;4.57;;
63203;SDS011;49297;43.210;27.914;2023-04-24T07:11:57;9.52;;;5.20;;
63203;SDS011;49297;43.210;27.914;2023-04-24T07:14:23;7.57;;;4.63;;
63203;SDS011;49297;43.210;27.914;2023-04-24T07:16:48;9.27;;;4.78;;
63203;SDS011;49297;43.210;27.914;2023-04-24T07:19:15;6.97;;;4.50;;
63203;SDS011;49297;43.210;27.914;2023-04-24T07:21:41;8.52;;;5.38;;
63203;SDS011;49297;43.210;27.914;2023-04-24T07:24:07;10.55;;;4.93;;
63203;SDS011;49297;43.210;27.914;2023-04-24T07:26:37;9.03;;;4.57;;
63203;SDS011;49297;43.210;27.914;2023-04-24T07:29:04;8.23;;;4.70;;
63203;SDS011;49297;43.210;27.914;2023-04-24T07:31:31;7.05;;;5.72;;
63203;SDS011;49297;43.210;27.914;2023-04-24T07:33:57;9.67;;;6.97;;
63203;SDS011;49297;43.210;27.914;2023-04-24T07:36:24;10.20;;;4.90;;
63203;SDS011;49297;43.210;27.914;2023-04-24T07:38:51;9.15;;;5.03;;
63203;SDS011;49297;43.210;27.914;2023-04-24T07:41:18;6.32;;;4.57;;
63203;SDS011;49297;43.210;27.914;2023-04-24T07:43:44;8.63;;;5.03;;
63203;SDS011;49297;43.210;27.914;2023-04-24T07:46:10;7.95;;;5.18;;
63203;SDS011;49297;43.210;27.914;2023-04-24T07:48:44;11.35;;;5.10;;
63203;SDS011;49297;43.210;27.914;2023-04-24T07:51:11;7.28;;;4.93;;
63203;SDS011;49297;43.210;27.914;2023-04-24T07:53:40;10.02;;;5.10;;
63203;SDS011;49297;43.210;27.914;2023-04-24T07:56:08;9.15;;;5.20;;
63203;SDS011;49297;43.210;27.914;2023-04-24T07:58:34;9.32;;;5.03;;
63203;SDS011;49297;43.210;27.914;2023-04-24T08:01:00;8.30;;;4.57;;
63203;SDS011;49297;43.210;27.914;2023-04-24T08:03:26;15.80;;;6.70;;
63203;SDS011;49297;43.210;27.914;2023-04-24T08:05:52;8.33;;;4.20;;
63203;SDS011;49297;43.210;27.914;2023-04-24T08:08:20;7.27;;;4.57;;
63203;SDS011;49297;43.210;27.914;2023-04-24T08:10:48;6.30;;;4.88;;
63203;SDS011;49297;43.210;27.914;2023-04-24T08:13:15;7.32;;;4.47;;
63203;SDS011;49297;43.210;27.914;2023-04-24T08:15:42;7.43;;;4.40;;
63203;SDS011;49297;43.210;27.914;2023-04-24T08:18:08;10.77;;;5.40;;
63203;SDS011;49297;43.210;27.914;2023-04-24T08:20:38;7.63;;;4.75;;
63203;SDS011;49297;43.210;27.914;2023-04-24T08:23:04;6.93;;;4.32;;
63203;SDS011;49297;43.210;27.914;2023-04-24T08:25:30;17.27;;;4.88;;
63203;SDS011;49297;43.210;27.914;2023-04-24T08:27:56;9.27;;;4.93;;
63203;SDS011;49297;43.210;27.914;2023-04-24T08:30:22;6.88;;;4.95;;
63203;SDS011;49297;43.210;27.914;2023-04-24T08:32:50;7.05;;;4.78;;
63203;SDS011;49297;43.210;27.914;2023-04-24T08:35:15;8.82;;;4.80;;
63203;SDS011;49297;43.210;27.914;2023-04-24T08:37:43;9.25;;;4.97;;
63203;SDS011;49297;43.210;27.914;2023-04-24T08:40:15;6.60;;;5.00;;
63203;SDS011;49297;43.210;27.914;2023-04-24T08:42:43;9.70;;;4.35;;
63203;SDS011;49297;43.210;27.914;2023-04-24T08:45:13;12.82;;;5.07;;
63203;SDS011;49297;43.210;27.914;2023-04-24T08:47:41;11.23;;;5.65;;
63203;SDS011;49297;43.210;27.914;2023-04-24T08:50:07;5.90;;;4.67;;
63203;SDS011;49297;43.210;27.914;2023-04-24T08:52:35;7.35;;;4.43;;
63203;SDS011;49297;43.210;27.914;2023-04-24T08:55:01;12.87;;;4.53;;
63203;SDS011;49297;43.210;27.914;2023-04-24T08:57:28;7.35;;;4.68;;
63203;SDS011;49297;43.210;27.914;2023-04-24T08:59:57;6.10;;;4.67;;
63203;SDS011;49297;43.210;27.914;2023-04-24T09:02:25;8.90;;;4.90;;
63203;SDS011;49297;43.210;27.914;2023-04-24T09:04:52;7.93;;;4.60;;
63203;SDS011;49297;43.210;27.914;2023-04-24T09:07:19;14.00;;;6.07;;
63203;SDS011;49297;43.210;27.914;2023-04-24T09:09:45;9.48;;;4.57;;
63203;SDS011;49297;43.210;27.914;2023-04-24T09:12:14;7.50;;;4.70;;
63203;SDS011;49297;43.210;27.914;2023-04-24T09:14:39;8.60;;;4.43;;
63203;SDS011;49297;43.210;27.914;2023-04-24T09:17:11;7.93;;;4.95;;
63203;SDS011;49297;43.210;27.914;2023-04-24T09:19:38;9.18;;;5.72;;
63203;SDS011;49297;43.210;27.914;2023-04-24T09:22:05;8.30;;;5.55;;
63203;SDS011;49297;43.210;27.914;2023-04-24T09:24:33;13.48;;;6.05;;
63203;SDS011;49297;43.210;27.914;2023-04-24T09:27:00;10.73;;;5.88;;
63203;SDS011;49297;43.210;27.914;2023-04-24T09:29:29;11.35;;;5.03;;
63203;SDS011;49297;43.210;27.914;2023-04-24T09:31:55;7.23;;;4.10;;
63203;SDS011;49297;43.210;27.914;2023-04-24T09:34:23;6.97;;;4.40;;
63203;SDS011;49297;43.210;27.914;2023-04-24T09:36:50;8.55;;;5.72;;
63203;SDS011;49297;43.210;27.914;2023-04-24T09:39:17;8.35;;;4.50;;
63203;SDS011;49297;43.210;27.914;2023-04-24T09:41:56;8.48;;;4.53;;
63203;SDS011;49297;43.210;27.914;2023-04-24T09:44:26;7.40;;;4.35;;
63203;SDS011;49297;43.210;27.914;2023-04-24T09:46:54;6.20;;;5.10;;
63203;SDS011;49297;43.210;27.914;2023-04-24T09:49:25;9.13;;;5.35;;
63203;SDS011;49297;43.210;27.914;2023-04-24T09:52:02;8.70;;;4.90;;
63203;SDS011;49297;43.210;27.914;2023-04-24T09:54:32;10.50;;;5.28;;
63203;SDS011;49297;43.210;27.914;2023-04-24T09:56:58;6.97;;;4.90;;
63203;SDS011;49297;43.210;27.914;2023-04-24T09:59:26;12.55;;;4.35;;
63203;SDS011;49297;43.210;27.914;2023-04-24T10:01:55;8.73;;;4.30;;
63203;SDS011;49297;43.210;27.914;2023-04-24T10:04:24;8.27;;;5.32;;
63203;SDS011;49297;43.210;27.914;2023-04-24T10:06:53;11.77;;;4.85;;
63203;SDS011;49297;43.210;27.914;2023-04-24T10:09:34;9.52;;;5.40;;
63203;SDS011;49297;43.210;27.914;2023-04-24T10:12:01;6.70;;;4.18;;
63203;SDS011;49297;43.210;27.914;2023-04-24T10:14:28;9.90;;;4.85;;
63203;SDS011;49297;43.210;27.914;2023-04-24T10:16:55;18.05;;;5.75;;
63203;SDS011;49297;43.210;27.914;2023-04-24T10:19:23;9.10;;;5.15;;
63203;SDS011;49297;43.210;27.914;2023-04-24T10:21:52;10.90;;;4.87;;
63203;SDS011;49297;43.210;27.914;2023-04-24T10:24:18;13.50;;;5.22;;
63203;SDS011;49297;43.210;27.914;2023-04-24T10:26:48;9.55;;;4.07;;
63203;SDS011;49297;43.210;27.914;2023-04-24T10:29:17;8.80;;;4.93;;
63203;SDS011;49297;43.210;27.914;2023-04-24T10:31:44;13.20;;;5.18;;
63203;SDS011;49297;43.210;27.914;2023-04-24T10:34:14;9.52;;;4.78;;
63203;SDS011;49297;43.210;27.914;2023-04-24T10:36:48;8.90;;;4.82;;
63203;SDS011;49297;43.210;27.914;2023-04-24T10:39:18;8.20;;;4.53;;
63203;SDS011;49297;43.210;27.914;2023-04-24T10:41:46;6.80;;;3.72;;
63203;SDS011;49297;43.210;27.914;2023-04-24T10:44:15;5.57;;;4.15;;
63203;SDS011;49297;43.210;27.914;2023-04-24T10:46:45;6.93;;;5.13;;
63203;SDS011;49297;43.210;27.914;2023-04-24T10:49:15;7.47;;;4.47;;
63203;SDS011;49297;43.210;27.914;2023-04-24T10:51:45;11.02;;;5.10;;
63203;SDS011;49297;43.210;27.914;2023-04-24T10:54:26;9.50;;;4.85;;
63203;SDS011;49297;43.210;27.914;2023-04-24T10:57:40;5.63;;;4.78;;
63203;SDS011;49297;43.210;27.914;2023-04-24T11:00:16;8.67;;;4.90;;
63203;SDS011;49297;43.210;27.914;2023-04-24T11:02:45;9.15;;;4.93;;
63203;SDS011;49297;43.210;27.914;2023-04-24T11:05:16;11.95;;;4.72;;
63203;SDS011;49297;43.210;27.914;2023-04-24T11:10:39;9.43;;;5.40;;
63203;SDS011;49297;43.210;27.914;2023-04-24T11:13:07;6.73;;;4.40;;
63203;SDS011;49297;43.210;27.914;2023-04-24T11:15:33;6.97;;;4.65;;
63203;SDS011;49297;43.210;27.914;2023-04-24T11:18:02;6.35;;;4.65;;
63203;SDS011;49297;43.210;27.914;2023-04-24T11:20:28;12.07;;;5.30;;
63203;SDS011;49297;43.210;27.914;2023-04-24T11:22:55;9.45;;;4.38;;
63203;SDS011;49297;43.210;27.914;2023-04-24T11:25:23;9.57;;;4.63;;
63203;SDS011;49297;43.210;27.914;2023-04-24T11:27:50;6.13;;;4.28;;
63203;SDS011;49297;43.210;27.914;2023-04-24T11:30:29;7.53;;;4.05;;
63203;SDS011;49297;43.210;27.914;2023-04-24T11:33:01;23.33;;;4.63;;
63203;SDS011;49297;43.210;27.914;2023-04-24T11:35:29;5.43;;;4.10;;
63203;SDS011;49297;43.210;27.914;2023-04-24T11:37:56;7.80;;;4.10;;
63203;SDS011;49297;43.210;27.914;2023-04-24T11:40:22;7.68;;;4.65;;
63203;SDS011;49297;43.210;27.914;2023-04-24T11:42:49;7.80;;;4.65;;
63203;SDS011;49297;43.210;27.914;2023-04-24T11:45:23;10.00;;;4.30;;
63203;SDS011;49297;43.210;27.914;2023-04-24T11:47:51;7.10;;;4.50;;
63203;SDS011;49297;43.210;27.914;2023-04-24T11:50:18;6.93;;;3.65;;
63203;SDS011;49297;43.210;27.914;2023-04-24T11:52:47;6.63;;;4.25;;
63203;SDS011;49297;43.210;27.914;2023-04-24T11:57:48;6.55;;;4.68;;
63203;SDS011;49297;43.210;27.914;2023-04-24T12:00:28;5.47;;;3.45;;
63203;SDS011;49297;43.210;27.914;2023-04-24T12:03:03;8.38;;;4.28;;
63203;SDS011;49297;43.210;27.914;2023-04-24T12:05:34;11.07;;;4.43;;
63203;SDS011;49297;43.210;27.914;2023-04-24T12:08:00;13.10;;;4.05;;
63203;SDS011;49297;43.210;27.914;2023-04-24T12:10:27;9.27;;;4.37;;
63203;SDS011;49297;43.210;27.914;2023-04-24T12:12:55;8.40;;;4.17;;
63203;SDS011;49297;43.210;27.914;2023-04-24T12:15:22;5.07;;;3.65;;
63203;SDS011;49297;43.210;27.914;2023-04-24T12:17:50;8.65;;;4.30;;
63203;SDS011;49297;43.210;27.914;2023-04-24T12:20:23;6.25;;;4.43;;
63203;SDS011;49297;43.210;27.914;2023-04-24T12:23:00;6.20;;;3.73;;
63203;SDS011;49297;43.210;27.914;2023-04-24T12:25:27;8.27;;;4.07;;
63203;SDS011;49297;43.210;27.914;2023-04-24T12:30:40;5.90;;;4.50;;
63203;SDS011;49297;43.210;27.914;2023-04-24T12:33:19;6.22;;;3.58;;
63203;SDS011;49297;43.210;27.914;2023-04-24T12:35:46;7.18;;;3.95;;
63203;SDS011;49297;43.210;27.914;2023-04-24T12:38:15;8.93;;;4.05;;
63203;SDS011;49297;43.210;27.914;2023-04-24T12:41:16;7.10;;;4.13;;
63203;SDS011;49297;43.210;27.914;2023-04-24T12:46:19;7.10;;;3.88;;
63203;SDS011;49297;43.210;27.914;2023-04-24T12:48:45;18.10;;;3.90;;
63203;SDS011;49297;43.210;27.914;2023-04-24T12:51:13;5.60;;;4.10;;
63203;SDS011;49297;43.210;27.914;2023-04-24T12:53:40;5.97;;;4.00;;
63203;SDS011;49297;43.210;27.914;2023-04-24T12:56:06;5.63;;;4.18;;
63203;SDS011;49297;43.210;27.914;2023-04-24T12:58:33;5.43;;;4.03;;
63203;SDS011;49297;43.210;27.914;2023-04-24T13:01:00;7.07;;;4.85;;
63203;SDS011;49297;43.210;27.914;2023-04-24T13:03:27;7.07;;;4.07;;
63203;SDS011;49297;43.210;27.914;2023-04-24T13:05:53;9.95;;;4.97;;
63203;SDS011;49297;43.210;27.914;2023-04-24T13:08:19;6.80;;;4.38;;
63203;SDS011;49297;43.210;27.914;2023-04-24T13:10:45;11.45;;;5.07;;
63203;SDS011;49297;43.210;27.914;2023-04-24T13:15:40;8.85;;;4.30;;
63203;SDS011;49297;43.210;27.914;2023-04-24T13:18:06;6.13;;;4.60;;
63203;SDS011;49297;43.210;27.914;2023-04-24T13:20:32;6.27;;;4.43;;
63203;SDS011;49297;43.210;27.914;2023-04-24T13:22:58;8.05;;;5.32;;
63203;SDS011;49297;43.210;27.914;2023-04-24T13:25:35;7.25;;;4.32;;
63203;SDS011;49297;43.210;27.914;2023-04-24T13:28:02;7.20;;;4.50;;
63203;SDS011;49297;43.210;27.914;2023-04-24T13:30:28;8.45;;;3.92;;
63203;SDS011;49297;43.210;27.914;2023-04-24T13:33:01;6.63;;;4.57;;
63203;SDS011;49297;43.210;27.914;2023-04-24T13:35:27;7.23;;;4.83;;
63203;SDS011;49297;43.210;27.914;2023-04-24T13:37:52;11.93;;;4.57;;
63203;SDS011;49297;43.210;27.914;2023-04-24T13:40:21;9.73;;;5.00;;
63203;SDS011;49297;43.210;27.914;2023-04-24T13:42:48;7.40;;;4.13;;
63203;SDS011;49297;43.210;27.914;2023-04-24T13:45:16;7.88;;;4.78;;
63203;SDS011;49297;43.210;27.914;2023-04-24T13:47:42;9.45;;;5.18;;
63203;SDS011;49297;43.210;27.914;2023-04-24T13:50:09;6.33;;;3.93;;
63203;SDS011;49297;43.210;27.914;2023-04-24T13:52:36;10.15;;;4.38;;
63203;SDS011;49297;43.210;27.914;2023-04-24T13:55:03;10.02;;;4.43;;
63203;SDS011;49297;43.210;27.914;2023-04-24T13:57:31;7.05;;;3.75;;
63203;SDS011;49297;43.210;27.914;2023-04-24T13:59:57;9.30;;;4.30;;
63203;SDS011;49297;43.210;27.914;2023-04-24T14:02:27;9.10;;;4.40;;
63203;SDS011;49297;43.210;27.914;2023-04-24T14:04:53;6.68;;;4.65;;
63203;SDS011;49297;43.210;27.914;2023-04-24T14:07:19;7.88;;;4.25;;
63203;SDS011;49297;43.210;27.914;2023-04-24T14:09:47;11.50;;;4.68;;
63203;SDS011;49297;43.210;27.914;2023-04-24T14:12:13;9.65;;;4.65;;
63203;SDS011;49297;43.210;27.914;2023-04-24T14:14:41;8.48;;;4.82;;
63203;SDS011;49297;43.210;27.914;2023-04-24T14:17:08;8.15;;;4.88;;
63203;SDS011;49297;43.210;27.914;2023-04-24T14:19:34;7.27;;;4.47;;
63203;SDS011;49297;43.210;27.914;2023-04-24T14:22:00;7.00;;;4.70;;
63203;SDS011;49297;43.210;27.914;2023-04-24T14:24:27;7.40;;;5.03;;
63203;SDS011;49297;43.210;27.914;2023-04-24T14:26:53;6.88;;;4.43;;
63203;SDS011;49297;43.210;27.914;2023-04-24T14:29:19;10.82;;;5.30;;
63203;SDS011;49297;43.210;27.914;2023-04-24T14:31:45;8.47;;;4.77;;
63203;SDS011;49297;43.210;27.914;2023-04-24T14:34:12;10.05;;;4.68;;
63203;SDS011;49297;43.210;27.914;2023-04-24T14:36:41;7.20;;;4.72;;
63203;SDS011;49297;43.210;27.914;2023-04-24T14:39:08;7.07;;;4.80;;
63203;SDS011;49297;43.210;27.914;2023-04-24T14:41:35;5.53;;;4.45;;
63203;SDS011;49297;43.210;27.914;2023-04-24T14:44:03;7.25;;;4.80;;